Time;durP1;ratioP1;P1;durP2;ratioP2;P2;SDS_P1;SDS_P2;PMS_P1;PMS_P2;Temp;Humidity;BMP_temperature;BMP_pressure;BME280_temperature;BME280_humidity;BME280_pressure;Samples;Min_cycle;Max_cycle;Signal;HPM_P1;HPM_P2
2023/02/27 00:00:30;;;;;;;9.48;2.88;;;;;;;1.28;78.60;102772.00;5114837;28;20149;-62
2023/02/27 00:02:58;;;;;;;6.57;2.45;;;;;;;1.18;78.62;102779.34;5116402;28;20059;-63
2023/02/27 00:05:26;;;;;;;8.30;3.40;;;;;;;1.14;79.25;102777.94;5098585;28;20040;-63
2023/02/27 00:07:53;;;;;;;8.27;3.17;;;;;;;1.18;79.30;102773.97;5096955;28;20051;-64
2023/02/27 00:10:21;;;;;;;8.98;3.63;;;;;;;1.20;79.17;102776.47;5097408;28;20130;-64
2023/02/27 00:12:49;;;;;;;8.73;3.60;;;;;;;1.21;79.20;102781.69;5114875;28;20047;-65
2023/02/27 00:15:18;;;;;;;10.30;3.42;;;;;;;1.21;79.45;102779.00;5107968;28;20539;-64
2023/02/27 00:17:46;;;;;;;6.15;2.95;;;;;;;1.20;79.00;102780.03;5089084;28;20044;-62
2023/02/27 00:20:16;;;;;;;8.82;2.70;;;;;;;1.16;79.29;102775.97;5098123;28;20070;-63
2023/02/27 00:22:44;;;;;;;9.13;3.40;;;;;;;1.12;78.92;102777.25;5094743;28;20052;-61
2023/02/27 00:25:12;;;;;;;8.20;2.90;;;;;;;1.13;79.61;102776.28;5093656;28;20052;-62
2023/02/27 00:27:40;;;;;;;8.52;2.80;;;;;;;1.13;79.58;102773.59;5112073;28;20048;-62
2023/02/27 00:30:11;;;;;;;6.18;2.70;;;;;;;1.21;79.79;102776.31;5114046;28;20403;-62
2023/02/27 00:32:39;;;;;;;6.13;2.80;;;;;;;1.28;79.06;102768.50;5076507;28;20040;-62
2023/02/27 00:35:09;;;;;;;6.00;2.85;;;;;;;1.36;78.37;102770.38;5093485;28;20052;-63
2023/02/27 00:37:38;;;;;;;8.18;2.83;;;;;;;1.42;78.21;102770.59;5091808;28;20054;-63
2023/02/27 00:40:07;;;;;;;7.70;2.85;;;;;;;1.46;78.27;102773.78;5113092;28;20040;-62
2023/02/27 00:42:35;;;;;;;9.13;3.08;;;;;;;1.48;77.95;102774.47;5113211;28;20047;-62
2023/02/27 00:45:04;;;;;;;5.50;2.60;;;;;;;1.50;77.83;102777.84;5112952;28;20047;-61
2023/02/27 00:47:32;;;;;;;6.93;2.70;;;;;;;1.47;77.49;102770.94;5094634;28;20052;-62
2023/02/27 00:50:00;;;;;;;7.18;2.88;;;;;;;1.43;77.17;102766.88;5089708;28;20044;-58
2023/02/27 00:52:28;;;;;;;6.63;3.03;;;;;;;1.30;77.88;102765.63;5091447;28;20058;-63
2023/02/27 00:54:55;;;;;;;8.38;2.88;;;;;;;1.13;78.57;102776.28;5120498;27;20082;-57
2023/02/27 00:57:23;;;;;;;9.55;2.92;;;;;;;1.02;79.25;102766.63;5110626;28;20087;-60
2023/02/27 00:59:51;;;;;;;6.53;2.53;;;;;;;0.95;79.61;102764.72;5113754;28;20078;-62
2023/02/27 01:02:19;;;;;;;7.68;3.05;;;;;;;0.88;79.97;102763.66;5112003;28;20508;-62
2023/02/27 01:04:46;;;;;;;9.13;2.72;;;;;;;0.72;81.15;102754.50;5138748;27;20122;-57
2023/02/27 01:07:14;;;;;;;6.28;2.67;;;;;;;0.81;82.02;102766.97;5121607;28;20040;-58
2023/02/27 01:09:42;;;;;;;9.50;3.00;;;;;;;0.92;81.11;102762.38;5111970;28;20044;-56
2023/02/27 01:12:09;;;;;;;8.07;2.67;;;;;;;0.93;80.47;102759.50;5083427;28;20056;-63
2023/02/27 01:14:37;;;;;;;8.40;2.72;;;;;;;1.02;80.60;102763.09;5094979;28;20040;-60
2023/02/27 01:17:05;;;;;;;8.02;2.70;;;;;;;1.10;80.36;102760.47;5095274;28;20487;-62
2023/02/27 01:19:33;;;;;;;6.57;2.72;;;;;;;1.08;80.07;102756.25;5109537;28;20063;-62
2023/02/27 01:22:00;;;;;;;5.97;2.67;;;;;;;1.05;79.64;102763.63;5113524;28;20048;-62
2023/02/27 01:24:28;;;;;;;8.45;2.70;;;;;;;0.99;79.94;102758.91;5112441;28;20055;-62
2023/02/27 01:26:56;;;;;;;5.18;2.38;;;;;;;0.98;80.88;102756.34;5108972;28;20054;-62
2023/02/27 01:29:23;;;;;;;5.78;2.72;;;;;;;1.03;79.98;102756.72;5112702;28;20071;-62
2023/02/27 01:31:51;;;;;;;7.38;2.80;;;;;;;1.04;80.08;102763.78;5112687;28;20116;-63
2023/02/27 01:34:19;;;;;;;6.30;2.50;;;;;;;1.03;79.82;102759.41;5113120;28;20483;-64
2023/02/27 01:36:47;;;;;;;7.93;2.80;;;;;;;0.98;80.00;102762.56;5105087;27;20056;-63
2023/02/27 01:39:15;;;;;;;7.22;2.70;;;;;;;0.98;80.77;102761.72;5101109;27;20079;-63
2023/02/27 01:41:43;;;;;;;7.43;2.90;;;;;;;1.03;80.30;102752.22;5093243;28;20048;-63
2023/02/27 01:44:13;;;;;;;9.70;2.70;;;;;;;1.08;79.79;102748.19;5067027;28;20123;-62
2023/02/27 01:46:41;;;;;;;6.20;2.58;;;;;;;1.08;79.94;102750.88;5086552;28;20126;-63
2023/02/27 01:49:14;;;;;;;7.75;2.80;;;;;;;0.99;79.78;102750.00;5113752;28;20407;-63
2023/02/27 01:51:46;;;;;;;8.10;3.22;;;;;;;0.93;79.96;102751.47;5108422;28;20168;-62
2023/02/27 01:54:18;;;;;;;7.40;2.50;;;;;;;0.93;80.24;102747.94;5081857;28;20040;-63
2023/02/27 01:56:46;;;;;;;7.25;2.75;;;;;;;0.94;80.34;102744.25;5108597;27;20040;-62
2023/02/27 01:59:14;;;;;;;5.35;2.40;;;;;;;0.96;80.55;102748.47;5094548;27;20039;-63
2023/02/27 02:01:42;;;;;;;5.78;2.55;;;;;;;1.03;80.30;102749.53;5090664;28;20051;-63
2023/02/27 02:04:25;;;;;;;7.07;2.67;;;;;;;1.12;79.82;102747.72;5112237;27;20517;-62
2023/02/27 02:07:00;;;;;;;3.78;2.35;;;;;;;1.13;79.13;102744.06;5106976;28;20344;-62
2023/02/27 02:09:29;;;;;;;6.32;2.38;;;;;;;1.09;79.72;102741.84;5108584;27;20399;-63
2023/02/27 02:11:57;;;;;;;6.28;2.90;;;;;;;1.06;78.92;102754.59;5085850;28;20051;-63
2023/02/27 02:14:25;;;;;;;12.23;2.95;;;;;;;1.05;79.75;102752.03;5097305;28;20048;-62
2023/02/27 02:17:10;;;;;;;7.57;2.80;;;;;;;1.06;79.69;102753.75;5110304;28;20119;-64
2023/02/27 02:20:09;;;;;;;5.93;2.80;;;;;;;1.00;79.25;102754.38;5100817;28;20381;-62
2023/02/27 02:23:14;;;;;;;7.32;2.60;;;;;;;0.93;79.68;102746.09;5094376;28;20071;-63
2023/02/27 02:26:11;;;;;;;5.65;2.70;;;;;;;0.84;79.79;102739.84;5103608;28;20066;-63
2023/02/27 02:29:08;;;;;;;6.03;2.50;;;;;;;0.87;80.45;102743.19;5078939;28;20050;-62
2023/02/27 02:31:48;;;;;;;8.77;2.65;;;;;;;0.89;79.96;102749.25;5093018;28;20048;-63
2023/02/27 02:34:19;;;;;;;9.13;2.88;;;;;;;0.83;79.51;102737.28;5090476;28;20052;-63
2023/02/27 02:37:12;;;;;;;7.10;2.65;;;;;;;0.76;80.40;102736.25;5092429;28;20512;-62
2023/02/27 02:39:39;;;;;;;7.57;2.83;;;;;;;0.76;80.56;102736.25;5103181;28;20070;-63
2023/02/27 02:42:21;;;;;;;9.15;3.15;;;;;;;0.77;80.47;102752.19;5102576;28;20090;-62
2023/02/27 02:45:21;;;;;;;7.30;2.60;;;;;;;0.76;80.29;102750.50;5084711;28;20052;-62
2023/02/27 02:47:51;;;;;;;5.43;2.50;;;;;;;0.80;81.01;102748.34;5101950;28;20052;-64
2023/02/27 02:50:26;;;;;;;7.40;2.75;;;;;;;0.88;80.82;102755.63;5094391;28;20067;-64
2023/02/27 02:53:29;;;;;;;5.47;2.40;;;;;;;0.88;80.22;102744.88;5080771;28;20040;-62
2023/02/27 02:56:33;;;;;;;6.50;2.70;;;;;;;0.78;80.01;102745.81;5092872;28;20037;-63
2023/02/27 02:59:43;;;;;;;7.18;2.70;;;;;;;0.74;80.41;102747.13;5109592;28;20050;-62
2023/02/27 03:02:15;;;;;;;9.68;2.95;;;;;;;0.66;80.54;102746.22;5077618;28;20054;-63
2023/02/27 03:04:48;;;;;;;7.20;2.78;;;;;;;0.59;81.06;102741.47;5091073;28;20052;-62
2023/02/27 03:07:29;;;;;;;7.10;2.60;;;;;;;0.65;81.17;102753.44;5087350;28;20526;-63
2023/02/27 03:10:03;;;;;;;5.43;2.58;;;;;;;0.73;81.16;102758.03;5067103;28;20052;-64
2023/02/27 03:12:33;;;;;;;7.95;2.75;;;;;;;0.80;81.39;102764.44;5110499;28;20079;-62
2023/02/27 03:15:16;;;;;;;9.27;3.00;;;;;;;0.76;80.20;102761.22;5083647;28;20072;-62
2023/02/27 03:18:06;;;;;;;7.43;2.67;;;;;;;0.71;81.09;102766.22;5102172;28;20050;-60
2023/02/27 03:20:38;;;;;;;6.72;2.67;;;;;;;0.75;81.34;102761.41;5109552;28;20050;-63
2023/02/27 03:23:13;;;;;;;9.52;2.70;;;;;;;0.81;80.65;102771.50;5078131;28;20491;-61
2023/02/27 03:25:45;;;;;;;8.77;2.90;;;;;;;0.88;80.77;102769.88;5047569;28;1099334;-62
2023/02/27 03:28:24;;;;;;;8.30;2.90;;;;;;;0.85;79.97;102768.34;5089333;28;20119;-63
2023/02/27 03:31:00;;;;;;;6.47;2.72;;;;;;;0.75;80.83;102767.59;5090889;28;20113;-63
2023/02/27 03:33:50;;;;;;;9.10;2.65;;;;;;;0.79;80.96;102768.94;5081247;28;20445;-63
2023/02/27 03:36:51;;;;;;;9.75;2.90;;;;;;;0.85;80.54;102768.34;5077816;28;20068;-63
2023/02/27 03:39:31;;;;;;;8.38;2.90;;;;;;;0.91;80.39;102771.41;5036994;28;20071;-63
2023/02/27 03:42:27;;;;;;;8.15;2.88;;;;;;;0.92;80.04;102773.09;5098935;27;20060;-62
2023/02/27 03:45:38;;;;;;;4.43;2.50;;;;;;;0.96;79.93;102774.44;5112923;28;20040;-63
2023/02/27 03:48:07;;;;;;;7.07;2.83;;;;;;;0.99;79.85;102774.16;5093556;28;20050;-63
2023/02/27 03:50:36;;;;;;;5.28;2.70;;;;;;;0.99;79.33;102780.38;5100993;28;20142;-62
2023/02/27 03:53:10;;;;;;;8.85;3.25;;;;;;;0.96;79.50;102775.31;5088767;28;20556;-62
2023/02/27 03:55:40;;;;;;;5.90;2.72;;;;;;;0.97;79.81;102778.84;5077793;28;20051;-62
2023/02/27 03:58:08;;;;;;;6.28;2.80;;;;;;;0.95;79.85;102778.16;5096131;28;20410;-62
2023/02/27 04:00:36;;;;;;;6.72;2.55;;;;;;;0.91;79.55;102782.97;5110258;27;20488;-61
2023/02/27 04:03:04;;;;;;;7.85;2.63;;;;;;;0.90;79.81;102785.81;5095164;27;20094;-62
2023/02/27 04:05:32;;;;;;;5.95;2.40;;;;;;;0.88;80.36;102782.44;5072704;28;20035;-62
2023/02/27 04:08:34;;;;;;;5.75;2.50;;;;;;;0.87;79.93;102778.94;5100469;27;20054;-63
2023/02/27 04:11:23;;;;;;;5.22;2.35;;;;;;;0.84;80.58;102777.41;5100489;28;20048;-63
2023/02/27 04:14:05;;;;;;;6.22;2.72;;;;;;;0.74;79.80;102779.31;5105315;27;20089;-63
2023/02/27 04:17:01;;;;;;;7.35;2.83;;;;;;;0.63;80.59;102785.78;5097463;27;20043;-62
2023/02/27 04:19:42;;;;;;;7.20;3.00;;;;;;;0.62;80.78;102799.31;5102597;27;20070;-63
2023/02/27 04:22:29;;;;;;;6.70;2.60;;;;;;;0.62;81.25;102793.97;5105762;27;20043;-62
2023/02/27 04:25:19;;;;;;;5.55;2.78;;;;;;;0.62;81.73;102796.63;5094237;28;20064;-62
2023/02/27 04:27:50;;;;;;;7.53;2.88;;;;;;;0.68;81.51;102798.72;5094649;28;20046;-65
2023/02/27 04:30:25;;;;;;;6.30;2.63;;;;;;;0.76;80.97;102804.16;5110255;28;20048;-63
2023/02/27 04:33:34;;;;;;;7.32;2.53;;;;;;;0.80;80.69;102802.84;5122341;28;20106;-62
2023/02/27 04:36:11;;;;;;;6.22;2.50;;;;;;;0.82;80.64;102802.72;5108313;28;20093;-63
2023/02/27 04:38:47;;;;;;;8.35;2.60;;;;;;;0.85;80.56;102808.59;5095421;28;20481;-62
2023/02/27 04:41:20;;;;;;;5.72;2.55;;;;;;;0.85;80.25;102800.53;5094991;28;20137;-63
2023/02/27 04:43:48;;;;;;;4.95;2.60;;;;;;;0.80;79.50;102808.22;5060394;28;20097;-62
2023/02/27 04:46:17;;;;;;;5.47;2.83;;;;;;;0.74;80.35;102800.78;5083206;28;20062;-63
2023/02/27 04:48:55;;;;;;;4.85;2.50;;;;;;;0.75;80.98;102799.78;5114154;28;20187;-62
2023/02/27 04:51:28;;;;;;;5.88;2.45;;;;;;;0.77;81.16;102802.31;5113604;28;20059;-64
2023/02/27 04:54:10;;;;;;;7.03;2.80;;;;;;;0.79;80.73;102801.16;5106125;27;20039;-62
2023/02/27 04:56:46;;;;;;;6.60;2.80;;;;;;;0.79;80.35;102806.50;5108619;28;20052;-57
2023/02/27 04:59:24;;;;;;;5.75;2.58;;;;;;;0.78;80.29;102812.88;5120456;27;20037;-62
2023/02/27 05:02:23;;;;;;;8.27;2.80;;;;;;;0.80;79.85;102808.22;5086611;28;20071;-62
2023/02/27 05:04:55;;;;;;;5.30;2.58;;;;;;;0.75;79.81;102813.22;5128583;27;20058;-61
2023/02/27 05:07:31;;;;;;;8.77;3.25;;;;;;;0.67;80.84;102815.78;5140799;27;20067;-60
2023/02/27 05:10:10;;;;;;;6.65;2.75;;;;;;;0.63;80.07;102812.59;5117182;28;20058;-58
2023/02/27 05:12:38;;;;;;;7.95;3.30;;;;;;;0.52;80.38;102810.13;5103583;28;20362;-63
2023/02/27 05:15:28;;;;;;;8.50;3.10;;;;;;;0.44;81.31;102809.22;5102515;28;20040;-63
2023/02/27 05:18:05;;;;;;;8.63;3.40;;;;;;;0.43;82.40;102813.72;5096702;28;20048;-62
2023/02/27 05:20:55;;;;;;;5.85;2.60;;;;;;;0.42;82.17;102804.84;5112252;27;20089;-62
2023/02/27 05:23:47;;;;;;;8.10;3.05;;;;;;;0.32;82.02;102809.44;5091108;28;20067;-61
2023/02/27 05:26:27;;;;;;;6.10;2.67;;;;;;;0.24;82.31;102809.34;5099697;27;20067;-64
2023/02/27 05:29:13;;;;;;;6.47;2.75;;;;;;;0.08;83.68;102810.00;5096459;27;20515;-63
2023/02/27 05:31:47;;;;;;;6.60;3.20;;;;;;;-0.04;84.64;102811.19;5094488;28;20044;-60
2023/02/27 05:34:36;;;;;;;7.47;3.00;;;;;;;0.00;85.30;102815.25;5092725;28;20048;-61
2023/02/27 05:37:27;;;;;;;9.75;3.35;;;;;;;-0.10;85.43;102827.84;5105782;28;20483;-63
2023/02/27 05:39:55;;;;;;;9.15;3.33;;;;;;;-0.31;87.35;102828.09;5090645;28;20043;-62
2023/02/27 05:42:33;;;;;;;10.05;3.17;;;;;;;-0.26;87.38;102829.31;5111343;28;20509;-63
2023/02/27 05:45:13;;;;;;;6.75;2.97;;;;;;;-0.26;87.78;102831.16;5095700;28;20048;-63
2023/02/27 05:47:47;;;;;;;8.55;3.25;;;;;;;-0.23;88.62;102836.22;5111838;27;20054;-63
2023/02/27 05:50:26;;;;;;;9.23;3.00;;;;;;;-0.18;88.10;102841.97;5111000;28;20114;-63
2023/02/27 05:53:03;;;;;;;8.50;3.33;;;;;;;-0.18;88.30;102841.97;5132123;27;20071;-65
2023/02/27 05:55:37;;;;;;;8.30;3.42;;;;;;;-0.16;87.78;102837.31;5102293;28;20503;-64
2023/02/27 05:58:19;;;;;;;6.68;3.17;;;;;;;-0.10;87.95;102851.97;5100004;27;20118;-63
2023/02/27 06:00:52;;;;;;;8.35;3.63;;;;;;;-0.09;87.99;102849.13;5098374;28;20110;-63
2023/02/27 06:03:20;;;;;;;7.07;2.88;;;;;;;-0.15;87.29;102843.53;5106558;27;20043;-63
2023/02/27 06:05:51;;;;;;;8.60;3.10;;;;;;;-0.27;88.70;102851.72;5110571;28;20089;-65
2023/02/27 06:08:20;;;;;;;6.75;2.80;;;;;;;-0.27;88.41;102850.88;5092514;27;20040;-63
2023/02/27 06:10:51;;;;;;;9.95;3.50;;;;;;;-0.19;89.23;102859.06;5114842;27;20054;-65
2023/02/27 06:13:18;;;;;;;10.18;3.45;;;;;;;-0.13;89.07;102852.25;5105942;28;20047;-62
2023/02/27 06:15:46;;;;;;;9.52;3.47;;;;;;;-0.07;88.47;102849.00;5096019;28;20122;-62
2023/02/27 06:18:15;;;;;;;10.82;3.85;;;;;;;0.01;88.51;102853.63;5095294;28;20044;-62
2023/02/27 06:20:44;;;;;;;8.77;3.65;;;;;;;0.02;88.17;102855.28;4396700;28;10000800;-64
2023/02/27 06:23:12;;;;;;;6.25;3.20;;;;;;;0.01;88.31;102859.81;5114002;28;20070;-62
2023/02/27 06:25:43;;;;;;;6.88;3.28;;;;;;;0.03;87.99;102863.19;5106057;28;20066;-63
2023/02/27 06:28:11;;;;;;;6.63;3.28;;;;;;;0.01;87.41;102867.03;5094188;28;20086;-62
2023/02/27 06:30:39;;;;;;;7.80;3.03;;;;;;;-0.05;87.33;102865.75;5089418;28;20055;-63
2023/02/27 06:33:07;;;;;;;8.40;3.13;;;;;;;-0.13;88.20;102879.88;5087559;28;20052;-63
2023/02/27 06:35:34;;;;;;;9.63;3.35;;;;;;;-0.15;88.68;102876.50;5089031;28;20689;-63
2023/02/27 06:38:03;;;;;;;9.07;3.13;;;;;;;-0.16;89.27;102877.50;5088915;28;20118;-63
2023/02/27 06:40:31;;;;;;;7.07;3.08;;;;;;;-0.18;89.16;102882.16;5072456;28;20139;-63
2023/02/27 06:42:59;;;;;;;6.93;3.00;;;;;;;-0.17;88.80;102883.00;5109261;28;20082;-64
2023/02/27 06:45:26;;;;;;;9.38;3.30;;;;;;;-0.17;89.86;102888.34;5100654;28;20052;-62
2023/02/27 06:47:54;;;;;;;7.18;3.00;;;;;;;-0.19;89.47;102891.22;5088756;28;20051;-64
2023/02/27 06:50:22;;;;;;;9.63;3.30;;;;;;;-0.14;89.53;102896.97;5093234;28;20039;-64
2023/02/27 06:52:49;;;;;;;7.80;3.38;;;;;;;-0.10;89.58;102900.19;5094722;28;20055;-63
2023/02/27 06:55:19;;;;;;;6.90;3.25;;;;;;;-0.09;89.71;102897.38;5037495;28;20040;-64
2023/02/27 06:57:47;;;;;;;7.78;3.60;;;;;;;-0.09;89.15;102902.72;5092162;28;20043;-65
2023/02/27 07:00:15;;;;;;;8.75;3.40;;;;;;;-0.13;89.81;102917.41;5092618;28;20048;-63
2023/02/27 07:02:43;;;;;;;8.13;3.20;;;;;;;-0.12;89.96;102923.59;5117689;27;20487;-63
2023/02/27 07:05:11;;;;;;;10.00;3.80;;;;;;;-0.10;90.45;102922.44;5105776;27;20552;-64
2023/02/27 07:07:39;;;;;;;9.98;3.50;;;;;;;-0.02;90.05;102927.09;5089145;28;20119;-63
2023/02/27 07:10:10;;;;;;;8.35;3.55;;;;;;;-0.01;90.37;102926.09;5083207;28;20448;-62
2023/02/27 07:12:38;;;;;;;8.05;3.13;;;;;;;0.03;90.61;102932.88;5110312;28;20501;-62
2023/02/27 07:15:07;;;;;;;7.63;3.53;;;;;;;0.12;90.14;102936.50;5113338;28;20082;-61
2023/02/27 07:17:35;;;;;;;8.13;3.33;;;;;;;0.11;88.84;102934.81;5093734;28;20051;-61
2023/02/27 07:20:04;;;;;;;10.50;3.67;;;;;;;0.02;90.01;102928.47;5107027;27;20048;-63
2023/02/27 07:22:32;;;;;;;6.72;3.13;;;;;;;0.05;90.58;102935.38;5095162;28;20479;-62
2023/02/27 07:25:00;;;;;;;7.70;2.92;;;;;;;0.07;90.09;102931.56;5111070;28;20052;-62
2023/02/27 07:27:28;;;;;;;8.18;3.38;;;;;;;0.07;90.97;102936.09;5113728;28;20038;-60
2023/02/27 07:29:55;;;;;;;5.93;3.10;;;;;;;0.13;91.28;102938.19;5064382;28;20055;-62
2023/02/27 07:32:23;;;;;;;8.45;3.50;;;;;;;0.21;90.84;102939.13;5096496;28;20348;-61
2023/02/27 07:34:51;;;;;;;7.95;3.10;;;;;;;0.28;90.95;102935.88;5117510;28;20046;-60
2023/02/27 07:37:18;;;;;;;7.43;3.20;;;;;;;0.31;89.37;102931.06;5097588;28;20096;-63
2023/02/27 07:39:46;;;;;;;7.30;3.22;;;;;;;0.32;89.59;102932.75;5099114;28;20122;-61
2023/02/27 07:42:15;;;;;;;10.07;3.90;;;;;;;0.33;90.20;102937.13;5114738;28;20047;-62
2023/02/27 07:44:43;;;;;;;11.00;3.83;;;;;;;0.37;89.79;102945.72;5099024;28;20074;-61
2023/02/27 07:47:10;;;;;;;10.30;3.58;;;;;;;0.31;91.77;102939.09;5102906;28;20535;-62
2023/02/27 07:49:38;;;;;;;9.93;3.58;;;;;;;0.18;91.24;102935.91;5117419;28;20051;-64
2023/02/27 07:52:07;;;;;;;10.10;3.60;;;;;;;0.10;92.41;102936.66;5117633;27;20053;-61
2023/02/27 07:54:36;;;;;;;9.25;3.55;;;;;;;0.07;92.71;102930.72;5115497;28;20043;-61
2023/02/27 07:57:04;;;;;;;10.27;3.47;;;;;;;0.03;93.11;102938.22;5097818;28;20158;-61
2023/02/27 07:59:32;;;;;;;9.23;3.25;;;;;;;0.05;92.54;102940.75;5114555;28;20040;-61
2023/02/27 08:02:00;;;;;;;6.93;3.10;;;;;;;0.13;92.96;102941.72;5115902;28;20066;-61
2023/02/27 08:04:27;;;;;;;10.82;3.63;;;;;;;0.24;92.60;102940.72;5112999;28;20409;-61
2023/02/27 08:06:56;;;;;;;11.88;3.65;;;;;;;0.27;92.50;102945.75;5110645;28;20040;-63
2023/02/27 08:09:24;;;;;;;12.80;3.83;;;;;;;0.26;92.48;102937.84;5093530;28;20059;-61
2023/02/27 08:11:52;;;;;;;8.25;3.17;;;;;;;0.24;92.55;102940.72;5094705;28;20095;-63
2023/02/27 08:14:19;;;;;;;8.85;3.40;;;;;;;0.28;93.12;102942.06;5044087;28;20056;-62
2023/02/27 08:16:47;;;;;;;8.85;3.40;;;;;;;0.36;92.52;102936.84;5094882;28;20048;-60
2023/02/27 08:19:15;;;;;;;7.55;3.30;;;;;;;0.38;91.99;102936.66;5095736;27;20389;-57
2023/02/27 08:21:42;;;;;;;7.28;3.20;;;;;;;0.41;91.72;102945.28;5104019;27;20078;-61
2023/02/27 08:24:10;;;;;;;10.27;3.70;;;;;;;0.47;92.08;102945.69;5113671;28;20054;-61
2023/02/27 08:26:38;;;;;;;8.23;3.72;;;;;;;0.47;90.76;102940.31;5114792;28;20083;-60
2023/02/27 08:29:05;;;;;;;9.77;3.65;;;;;;;0.59;90.81;102941.81;5111848;27;20466;-60
2023/02/27 08:31:33;;;;;;;6.25;2.95;;;;;;;0.66;90.27;102945.56;5099951;28;20507;-60
2023/02/27 08:34:01;;;;;;;11.00;3.35;;;;;;;0.71;90.49;102954.00;5113640;27;20050;-60
2023/02/27 08:36:37;;;;;;;7.85;3.33;;;;;;;0.77;89.79;102949.88;5120673;28;20043;-58
2023/02/27 08:39:06;;;;;;;9.13;3.60;;;;;;;0.79;89.29;102956.78;5104282;28;20048;-63
2023/02/27 08:41:33;;;;;;;9.85;3.50;;;;;;;0.82;89.46;102966.41;5065464;28;20048;-61
2023/02/27 08:44:01;;;;;;;8.15;3.55;;;;;;;0.82;89.69;102961.88;5076366;28;20048;-62
2023/02/27 08:46:29;;;;;;;8.10;3.50;;;;;;;0.82;89.85;102961.88;5099186;27;20525;-63
2023/02/27 08:48:57;;;;;;;7.90;3.42;;;;;;;0.92;89.96;102960.97;5107027;27;20046;-62
2023/02/27 08:51:24;;;;;;;9.93;3.50;;;;;;;0.91;89.10;102957.41;5126269;27;20061;-63
2023/02/27 08:53:57;;;;;;;11.10;3.53;;;;;;;0.95;88.41;102966.03;5098855;28;20071;-61
2023/02/27 08:56:25;;;;;;;8.48;3.47;;;;;;;0.99;87.76;102962.88;5109005;28;20055;-60
2023/02/27 08:58:54;;;;;;;9.77;3.38;;;;;;;1.02;87.81;102964.41;5107331;28;20044;-63
2023/02/27 09:01:22;;;;;;;8.75;2.97;;;;;;;1.09;87.88;102970.03;5097565;28;20050;-62
2023/02/27 09:03:50;;;;;;;8.50;2.97;;;;;;;1.15;86.99;102967.56;5122917;28;20548;-57
2023/02/27 09:06:18;;;;;;;6.68;3.08;;;;;;;1.18;85.99;102972.66;5129313;28;20368;-55
2023/02/27 09:08:45;;;;;;;10.32;3.50;;;;;;;1.24;87.07;102977.38;5126732;28;20067;-60
2023/02/27 09:11:13;;;;;;;8.10;2.95;;;;;;;1.31;85.38;102971.41;5101863;28;20044;-60
2023/02/27 09:13:41;;;;;;;8.50;3.10;;;;;;;1.37;85.56;102973.47;5079206;28;20054;-63
2023/02/27 09:16:09;;;;;;;8.20;3.33;;;;;;;1.43;85.01;102978.25;5109067;28;20071;-61
2023/02/27 09:18:36;;;;;;;7.05;2.85;;;;;;;1.45;85.02;102979.78;5114370;28;20081;-63
2023/02/27 09:21:04;;;;;;;9.60;3.10;;;;;;;1.48;84.71;102984.00;5112644;28;20063;-62
2023/02/27 09:23:32;;;;;;;10.10;3.10;;;;;;;1.51;84.43;102983.69;5113101;28;20557;-61
2023/02/27 09:26:00;;;;;;;6.72;3.03;;;;;;;1.52;83.81;102980.00;5095778;28;20060;-63
2023/02/27 09:28:27;;;;;;;8.98;3.20;;;;;;;1.55;82.99;102982.38;5093574;28;20048;-62
2023/02/27 09:30:55;;;;;;;9.15;3.25;;;;;;;1.58;83.02;102989.28;5113757;28;20043;-61
2023/02/27 09:33:25;;;;;;;6.95;3.08;;;;;;;1.61;82.17;102987.16;5112721;28;20368;-61
2023/02/27 09:35:55;;;;;;;10.82;3.28;;;;;;;1.64;82.73;102984.13;5112590;28;20097;-62
2023/02/27 09:38:23;;;;;;;7.65;3.00;;;;;;;1.72;82.14;102974.47;5113901;28;20048;-62
2023/02/27 09:40:53;;;;;;;8.15;3.08;;;;;;;1.75;82.68;102977.66;5101037;28;20079;-61
2023/02/27 09:43:27;;;;;;;9.80;2.90;;;;;;;1.81;82.56;102979.75;5092038;28;20046;-62
2023/02/27 09:45:55;;;;;;;8.45;2.83;;;;;;;1.87;81.21;102970.19;5091971;28;20059;-62
2023/02/27 09:48:41;;;;;;;7.70;2.92;;;;;;;1.90;81.60;102969.88;5090846;28;20076;-63
2023/02/27 09:51:09;;;;;;;9.95;3.00;;;;;;;1.92;81.21;102975.94;5112607;28;20048;-62
2023/02/27 09:53:57;;;;;;;9.77;3.03;;;;;;;1.95;82.28;102972.97;5111882;28;20130;-62
2023/02/27 09:56:34;;;;;;;9.02;3.25;;;;;;;2.03;81.16;102978.38;5112375;28;20047;-62
2023/02/27 09:59:30;;;;;;;8.13;3.22;;;;;;;2.12;76.86;102976.59;5078348;28;20067;-62
2023/02/27 10:02:31;;;;;;;5.18;2.10;;;;;;;2.16;76.33;102971.72;5112450;28;20048;-61
2023/02/27 10:05:17;;;;;;;8.40;2.85;;;;;;;2.20;75.53;102975.78;5111272;28;20089;-62
2023/02/27 10:08:15;;;;;;;10.10;3.63;;;;;;;2.27;75.18;102983.06;5114251;28;20044;-63
2023/02/27 10:11:04;;;;;;;7.32;2.35;;;;;;;2.32;73.16;102983.41;5113968;28;20398;-61
2023/02/27 10:13:58;;;;;;;6.63;2.45;;;;;;;2.36;73.34;102973.19;5112284;28;20050;-63
2023/02/27 10:16:26;;;;;;;8.00;2.72;;;;;;;2.39;72.24;102989.00;5113295;28;20096;-63
2023/02/27 10:19:03;;;;;;;7.65;2.90;;;;;;;2.43;72.73;102971.56;5112715;28;20047;-62
2023/02/27 10:21:48;;;;;;;6.32;2.10;;;;;;;2.46;72.35;102973.06;5112556;28;20046;-62
2023/02/27 10:24:36;;;;;;;5.60;2.40;;;;;;;2.49;71.74;102973.59;5095835;28;20471;-61
2023/02/27 10:27:06;;;;;;;6.53;2.42;;;;;;;2.57;71.25;102972.75;5092285;28;20044;-62
2023/02/27 10:29:38;;;;;;;4.55;2.28;;;;;;;2.65;71.09;102971.97;5094072;28;20502;-62
2023/02/27 10:32:19;;;;;;;10.70;3.53;;;;;;;2.70;70.24;102975.03;5113138;28;20050;-62
2023/02/27 10:34:51;;;;;;;5.68;2.15;;;;;;;2.72;70.40;102973.84;5112601;28;20047;-63
2023/02/27 10:37:21;;;;;;;9.02;2.50;;;;;;;2.75;70.55;102967.31;5112287;28;20039;-62
2023/02/27 10:39:54;;;;;;;6.30;2.33;;;;;;;2.77;71.25;102973.38;5095862;28;20049;-64
2023/02/27 10:42:26;;;;;;;8.40;2.60;;;;;;;2.78;70.77;102964.28;5111009;28;20487;-63
2023/02/27 10:44:54;;;;;;;9.95;2.72;;;;;;;2.85;70.79;102968.00;5095914;28;20159;-61
2023/02/27 10:47:24;;;;;;;6.35;2.17;;;;;;;2.92;69.67;102974.41;5095960;28;20101;-61
2023/02/27 10:49:53;;;;;;;6.93;2.53;;;;;;;2.96;69.84;102965.00;5095612;28;20123;-62
2023/02/27 10:52:21;;;;;;;4.65;2.50;;;;;;;3.00;68.99;102960.13;5096984;28;20057;-62
2023/02/27 10:54:49;;;;;;;12.95;2.55;;;;;;;3.01;68.78;102955.56;5098277;28;20055;-61
2023/02/27 10:57:25;;;;;;;13.35;4.07;;;;;;;3.06;69.06;102946.00;5095548;28;20044;-62
2023/02/27 11:00:04;;;;;;;9.48;2.53;;;;;;;3.11;69.35;102950.91;5097086;28;20044;-62
2023/02/27 11:02:39;;;;;;;6.20;2.80;;;;;;;3.15;69.54;102942.31;5095600;28;20447;-59
2023/02/27 11:05:23;;;;;;;5.82;2.30;;;;;;;3.16;69.04;102953.94;5113852;28;20052;-61
2023/02/27 11:07:51;;;;;;;8.55;2.95;;;;;;;3.24;69.43;102935.09;5118034;28;20047;-61
2023/02/27 11:10:23;;;;;;;8.80;2.80;;;;;;;3.32;69.21;102928.84;5116117;28;20507;-61
2023/02/27 11:13:03;;;;;;;6.38;2.58;;;;;;;3.38;68.04;102937.09;5078626;28;20036;-61
2023/02/27 11:15:33;;;;;;;7.22;2.70;;;;;;;3.44;67.70;102934.75;5096701;28;20199;-62
2023/02/27 11:18:27;;;;;;;11.02;3.15;;;;;;;3.46;68.03;102924.66;5092996;28;20047;-63
2023/02/27 11:21:16;;;;;;;6.22;2.40;;;;;;;3.46;66.82;102922.78;5110698;28;20463;-63
2023/02/27 11:23:53;;;;;;;7.53;2.50;;;;;;;3.47;65.63;102939.81;5061995;28;20059;-62
2023/02/27 11:26:32;;;;;;;8.50;2.90;;;;;;;3.49;65.56;102921.59;5095005;28;20098;-62
2023/02/27 11:29:05;;;;;;;7.75;2.80;;;;;;;3.54;66.04;102913.88;5097543;28;20063;-64
2023/02/27 11:31:35;;;;;;;7.47;2.70;;;;;;;3.54;66.25;102924.66;5081270;28;20177;-62
2023/02/27 11:34:03;;;;;;;8.00;2.63;;;;;;;3.47;65.66;102910.19;5061629;28;20118;-61
2023/02/27 11:36:40;;;;;;;5.88;2.40;;;;;;;3.46;65.19;102905.78;5094786;28;20490;-61
2023/02/27 11:39:15;;;;;;;;;;;;;;;3.42;65.87;102906.13;5095420;28;20044;-61
2023/02/27 11:41:46;;;;;;;8.02;3.08;;;;;;;3.44;66.28;102892.50;5095181;28;19928;-62
2023/02/27 11:44:17;;;;;;;13.30;3.30;;;;;;;3.46;66.61;102890.44;5107220;27;20071;-63
2023/02/27 11:47:12;;;;;;;6.68;2.78;;;;;;;3.54;66.13;102893.16;5115617;28;20107;-61
2023/02/27 11:50:04;;;;;;;7.50;2.75;;;;;;;3.59;66.33;102895.34;5116530;28;20570;-64
2023/02/27 11:52:58;;;;;;;6.85;2.40;;;;;;;3.68;66.08;102897.03;5097858;28;20054;-62
2023/02/27 11:55:28;;;;;;;7.93;2.35;;;;;;;3.76;64.13;102894.31;5097554;28;20078;-61
2023/02/27 11:58:03;;;;;;;12.00;2.50;;;;;;;3.75;63.27;102900.72;5080629;28;20464;-61
2023/02/27 12:00:49;;;;;;;6.78;2.45;;;;;;;3.74;62.54;102892.78;5116108;28;20047;-61
2023/02/27 12:03:29;;;;;;;4.13;2.15;;;;;;;3.80;62.88;102902.88;5115720;28;20080;-61